Time;durP1;ratioP1;P1;durP2;ratioP2;P2;SDS_P1;SDS_P2;PMS_P1;PMS_P2;Temp;Humidity;BMP_temperature;BMP_pressure;BME280_temperature;BME280_humidity;BME280_pressure;Samples;Min_cycle;Max_cycle;Signal;HPM_P1;HPM_P2
2021/06/18 00:01:13;;;;;;;11.17;10.13;;;20.60;99.90;;;;;;484293;245;28744;-66
2021/06/18 00:03:14;;;;;;;12.50;11.30;;;20.50;99.90;;;;;;484302;244;28834;-67
2021/06/18 00:05:16;;;;;;;13.63;11.07;;;20.50;99.90;;;;;;484338;244;29270;-66
2021/06/18 00:07:17;;;;;;;11.60;10.57;;;20.50;99.90;;;;;;484299;244;29339;-66
2021/06/18 00:09:18;;;;;;;11.10;10.10;;;20.60;99.90;;;;;;484264;244;28766;-66
2021/06/18 00:11:19;;;;;;;11.23;10.13;;;20.50;99.90;;;;;;484280;244;28774;-66
2021/06/18 00:13:21;;;;;;;11.80;10.80;;;20.60;99.90;;;;;;484240;244;28865;-67
2021/06/18 00:15:22;;;;;;;13.20;11.90;;;20.60;99.90;;;;;;484240;244;28736;-66
2021/06/18 00:17:23;;;;;;;12.07;10.80;;;20.60;99.90;;;;;;484246;244;28750;-66
2021/06/18 00:19:24;;;;;;;12.40;11.20;;;20.60;99.90;;;;;;484276;245;29227;-68
2021/06/18 00:21:26;;;;;;;12.13;11.03;;;20.60;99.90;;;;;;484266;244;29261;-65
2021/06/18 00:23:27;;;;;;;11.03;10.03;;;20.60;99.90;;;;;;484284;244;28743;-66
2021/06/18 00:25:28;;;;;;;12.40;10.90;;;20.70;99.90;;;;;;484293;244;28759;-66
2021/06/18 00:27:29;;;;;;;12.00;10.80;;;20.70;99.90;;;;;;484305;244;28765;-67
2021/06/18 00:29:31;;;;;;;11.60;10.50;;;20.70;99.90;;;;;;484327;245;28771;-68
2021/06/18 00:31:32;;;;;;;10.80;9.77;;;20.70;99.90;;;;;;484282;244;28749;-66
2021/06/18 00:33:33;;;;;;;12.30;11.10;;;20.70;99.90;;;;;;484233;244;29333;-66
2021/06/18 00:35:34;;;;;;;12.70;11.50;;;20.70;99.90;;;;;;484261;244;29189;-66
2021/06/18 00:37:36;;;;;;;10.77;9.87;;;20.60;99.90;;;;;;484302;244;28719;-66
2021/06/18 00:39:37;;;;;;;12.83;10.20;;;20.70;99.90;;;;;;484288;244;28808;-66
2021/06/18 00:41:38;;;;;;;11.30;10.10;;;20.70;99.90;;;;;;484273;245;28750;-66
2021/06/18 00:43:39;;;;;;;11.90;10.70;;;20.50;99.90;;;;;;484283;245;28748;-67
2021/06/18 00:45:41;;;;;;;13.40;10.83;;;20.50;99.90;;;;;;484307;244;28829;-66
2021/06/18 00:47:42;;;;;;;12.90;11.60;;;20.30;99.90;;;;;;484314;245;29266;-66
2021/06/18 00:49:43;;;;;;;12.03;10.90;;;20.30;99.90;;;;;;484274;244;29929;-66
2021/06/18 00:51:44;;;;;;;11.60;10.50;;;20.30;99.90;;;;;;484287;244;28707;-66
2021/06/18 00:53:46;;;;;;;11.90;10.60;;;20.40;99.90;;;;;;484305;244;28743;-68
2021/06/18 00:55:48;;;;;;;11.47;10.47;;;20.40;99.90;;;;;;484263;244;28739;-66
2021/06/18 00:57:48;;;;;;;12.87;11.57;;;20.40;99.90;;;;;;484288;244;28868;-66
2021/06/18 00:59:49;;;;;;;13.97;11.27;;;20.30;99.90;;;;;;484281;244;28775;-68
2021/06/18 01:01:51;;;;;;;13.90;12.43;;;20.30;99.90;;;;;;484304;245;29278;-66
2021/06/18 01:03:52;;;;;;;10.60;9.60;;;20.30;99.90;;;;;;484291;244;29200;-67
2021/06/18 01:05:53;;;;;;;11.47;10.37;;;20.30;99.90;;;;;;484296;244;28714;-66
2021/06/18 01:07:55;;;;;;;11.73;10.60;;;20.20;99.90;;;;;;484277;244;28780;-67
2021/06/18 01:09:56;;;;;;;12.37;11.23;;;20.20;99.90;;;;;;484227;245;28838;-66
2021/06/18 01:12:00;;;;;;;15.90;11.53;;;20.20;99.90;;;;;;484309;244;28799;-66
2021/06/18 01:13:58;;;;;;;10.83;9.83;;;20.20;99.90;;;;;;484159;245;28756;-67
2021/06/18 01:16:00;;;;;;;11.97;10.50;;;20.10;99.90;;;;;;484269;245;28727;-66
2021/06/18 01:18:01;;;;;;;12.93;11.73;;;20.20;99.90;;;;;;484293;244;30100;-66
2021/06/18 01:20:02;;;;;;;13.77;12.23;;;20.10;99.90;;;;;;484263;245;29256;-66
2021/06/18 01:22:03;;;;;;;12.00;10.87;;;20.10;99.90;;;;;;484300;244;28717;-67
2021/06/18 01:24:05;;;;;;;14.10;11.23;;;20.00;99.90;;;;;;484303;244;28807;-67
2021/06/18 01:26:06;;;;;;;13.33;12.07;;;19.90;99.90;;;;;;484297;244;28770;-66
2021/06/18 01:28:07;;;;;;;12.93;11.63;;;19.80;99.90;;;;;;484296;244;28765;-66
2021/06/18 01:30:08;;;;;;;12.07;10.97;;;19.70;99.90;;;;;;484256;244;29245;-66
2021/06/18 01:32:10;;;;;;;12.67;11.47;;;19.70;99.90;;;;;;484296;244;29259;-67
2021/06/18 01:34:11;;;;;;;15.70;13.23;;;19.70;99.90;;;;;;484272;244;29221;-67
2021/06/18 01:36:13;;;;;;;15.43;13.30;;;19.60;99.90;;;;;;484242;244;28731;-66
2021/06/18 01:38:13;;;;;;;13.90;12.50;;;19.50;99.90;;;;;;484116;244;28755;-66
2021/06/18 01:40:15;;;;;;;12.67;11.50;;;19.50;99.90;;;;;;484103;244;28736;-67
2021/06/18 01:42:16;;;;;;;12.23;11.03;;;19.50;99.90;;;;;;484085;244;28718;-66
2021/06/18 01:44:17;;;;;;;13.17;11.93;;;19.50;99.90;;;;;;484256;244;28842;-67
2021/06/18 01:46:18;;;;;;;13.90;12.50;;;19.70;99.90;;;;;;484255;244;29198;-66
2021/06/18 01:48:20;;;;;;;11.30;10.20;;;19.70;99.90;;;;;;484283;244;29259;-66
2021/06/18 01:50:21;;;;;;;12.23;11.13;;;19.90;99.90;;;;;;484247;245;28771;-67
2021/06/18 01:52:22;;;;;;;12.53;11.23;;;20.10;99.90;;;;;;484314;244;28784;-67
2021/06/18 01:54:27;;;;;;;12.20;11.10;;;20.20;99.90;;;;;;484271;244;28752;-68
2021/06/18 01:56:25;;;;;;;12.70;11.17;;;20.20;99.90;;;;;;484198;245;28771;-66
2021/06/18 01:58:26;;;;;;;16.93;12.50;;;20.20;99.90;;;;;;484268;244;28696;-66
2021/06/18 02:00:27;;;;;;;14.67;12.53;;;20.20;99.90;;;;;;484278;244;29214;-68
2021/06/18 02:02:28;;;;;;;14.73;10.97;;;20.20;99.90;;;;;;484305;244;29242;-66
2021/06/18 02:04:30;;;;;;;13.37;11.97;;;20.20;99.90;;;;;;484269;245;28846;-66
2021/06/18 02:06:31;;;;;;;11.67;10.53;;;20.30;99.90;;;;;;484265;244;28734;-66
2021/06/18 02:08:32;;;;;;;14.27;11.73;;;20.30;99.90;;;;;;484282;244;28706;-66
2021/06/18 02:10:34;;;;;;;12.10;10.90;;;20.40;99.90;;;;;;484270;244;28841;-67
2021/06/18 02:12:35;;;;;;;16.50;13.00;;;20.30;99.90;;;;;;484312;244;28744;-66
2021/06/18 02:14:36;;;;;;;12.50;11.40;;;20.20;99.90;;;;;;484277;244;29220;-66
2021/06/18 02:16:37;;;;;;;16.00;13.23;;;20.30;99.90;;;;;;484249;244;29974;-67
2021/06/18 02:18:39;;;;;;;13.37;11.97;;;20.20;99.90;;;;;;484290;244;28828;-66
2021/06/18 02:20:40;;;;;;;16.93;12.00;;;20.20;99.90;;;;;;484274;244;28849;-67
2021/06/18 02:22:41;;;;;;;13.07;11.80;;;20.20;99.90;;;;;;485433;244;28797;-66
2021/06/18 02:24:42;;;;;;;12.80;11.50;;;20.20;99.90;;;;;;472583;251;28918;-67
2021/06/18 02:26:44;;;;;;;15.20;12.13;;;20.20;99.90;;;;;;473320;251;29277;-68
2021/06/18 02:28:45;;;;;;;12.27;11.07;;;20.20;99.90;;;;;;475925;249;29226;-66
2021/06/18 02:30:46;;;;;;;15.27;11.33;;;20.20;99.90;;;;;;478468;248;29472;-67
2021/06/18 02:32:47;;;;;;;14.70;12.10;;;20.30;99.90;;;;;;475945;250;28860;-66
2021/06/18 02:34:49;;;;;;;12.30;11.00;;;20.30;99.90;;;;;;478462;248;29027;-66
2021/06/18 02:36:50;;;;;;;12.67;11.37;;;20.40;99.90;;;;;;483344;246;28967;-66
2021/06/18 02:38:51;;;;;;;13.03;11.70;;;20.30;99.90;;;;;;475951;249;28833;-67
2021/06/18 02:40:52;;;;;;;12.27;10.97;;;20.40;99.90;;;;;;478480;248;28915;-67
2021/06/18 02:42:54;;;;;;;13.20;11.53;;;20.40;99.90;;;;;;483359;245;29325;-66
2021/06/18 02:44:55;;;;;;;13.50;12.10;;;20.40;99.90;;;;;;475964;249;29273;-66
2021/06/18 02:46:56;;;;;;;11.43;10.23;;;20.40;99.90;;;;;;478449;248;28899;-66
2021/06/18 02:48:58;;;;;;;12.17;10.90;;;20.40;99.90;;;;;;475928;250;28857;-66
2021/06/18 02:50:59;;;;;;;11.67;10.43;;;20.30;99.90;;;;;;478450;245;28954;-68
2021/06/18 02:53:00;;;;;;;11.80;10.60;;;20.40;99.90;;;;;;483306;246;28864;-66
2021/06/18 02:55:01;;;;;;;11.30;10.00;;;20.30;99.90;;;;;;475936;249;28833;-66
2021/06/18 02:57:03;;;;;;;15.30;10.43;;;20.40;99.90;;;;;;478436;248;29942;-68
2021/06/18 02:59:04;;;;;;;12.80;10.73;;;20.40;99.90;;;;;;475957;250;29244;-66
2021/06/18 03:01:05;;;;;;;10.87;9.77;;;20.40;99.90;;;;;;478471;248;28912;-66
2021/06/18 03:03:06;;;;;;;11.37;10.30;;;20.40;99.90;;;;;;483342;245;28930;-66
2021/06/18 03:05:08;;;;;;;16.20;12.33;;;20.40;99.90;;;;;;475958;250;28866;-66
2021/06/18 03:07:09;;;;;;;11.03;10.03;;;20.40;99.90;;;;;;478473;248;28940;-67
2021/06/18 03:09:10;;;;;;;14.13;9.43;;;20.40;99.90;;;;;;483332;246;28951;-66
2021/06/18 03:11:11;;;;;;;10.87;9.77;;;20.40;99.90;;;;;;475962;249;28984;-67
2021/06/18 03:13:13;;;;;;;10.90;9.90;;;20.40;99.90;;;;;;478488;248;29429;-66
2021/06/18 03:15:14;;;;;;;9.73;8.83;;;20.40;99.90;;;;;;475956;250;29456;-66
2021/06/18 03:17:19;;;;;;;10.57;9.47;;;20.40;99.90;;;;;;479111;240;29258;-67
2021/06/18 03:19:16;;;;;;;12.23;9.40;;;20.40;99.90;;;;;;485338;245;28853;-66
2021/06/18 03:21:18;;;;;;;9.80;8.80;;;20.40;99.90;;;;;;485903;245;28746;-67
2021/06/18 03:23:19;;;;;;;10.83;9.60;;;20.40;99.90;;;;;;485890;245;28789;-66
2021/06/18 03:25:21;;;;;;;10.07;8.47;;;20.40;99.90;;;;;;485909;245;28809;-66
2021/06/18 03:27:21;;;;;;;11.27;8.80;;;20.30;99.90;;;;;;483719;239;28583;-68
2021/06/18 03:29:23;;;;;;;10.90;9.27;;;20.30;99.90;;;;;;470636;251;28819;-67
2021/06/18 03:31:24;;;;;;;10.83;9.73;;;20.30;99.90;;;;;;470766;251;29306;-67
2021/06/18 03:33:25;;;;;;;13.97;8.97;;;20.30;99.90;;;;;;470737;251;29976;-67
2021/06/18 03:35:26;;;;;;;10.07;9.00;;;20.30;99.90;;;;;;470738;251;29353;-67
2021/06/18 03:37:28;;;;;;;9.57;8.40;;;20.40;99.90;;;;;;475104;238;28715;-66
2021/06/18 03:39:29;;;;;;;9.40;8.53;;;20.40;99.90;;;;;;488126;243;28814;-67
2021/06/18 03:41:30;;;;;;;9.27;8.30;;;20.50;99.90;;;;;;488103;243;28851;-67
2021/06/18 03:43:31;;;;;;;10.30;9.23;;;20.50;99.90;;;;;;488112;243;28831;-67
2021/06/18 03:45:33;;;;;;;13.43;8.50;;;20.50;99.90;;;;;;488100;243;28825;-67
2021/06/18 03:47:34;;;;;;;9.60;8.70;;;20.50;99.90;;;;;;488118;243;28871;-67
2021/06/18 03:49:35;;;;;;;8.83;7.87;;;20.50;99.90;;;;;;488132;243;28827;-67
2021/06/18 03:51:36;;;;;;;11.37;8.40;;;20.50;99.90;;;;;;488079;243;29335;-68
2021/06/18 03:53:38;;;;;;;9.10;8.30;;;20.50;99.90;;;;;;488083;243;29427;-69
2021/06/18 03:55:39;;;;;;;9.63;8.20;;;20.60;99.90;;;;;;488111;243;29263;-67
2021/06/18 03:57:40;;;;;;;9.47;8.57;;;20.60;99.90;;;;;;488138;243;29318;-67
2021/06/18 03:59:41;;;;;;;9.37;8.03;;;20.50;99.90;;;;;;488109;243;28796;-67
2021/06/18 04:01:43;;;;;;;10.73;9.60;;;20.40;99.90;;;;;;488096;243;28834;-67
2021/06/18 04:03:44;;;;;;;10.63;9.63;;;20.40;99.90;;;;;;488088;243;28951;-69
2021/06/18 04:05:45;;;;;;;9.10;8.20;;;20.30;99.90;;;;;;488069;243;28828;-67
2021/06/18 04:07:47;;;;;;;12.80;9.87;;;20.40;99.90;;;;;;488132;243;28875;-68
2021/06/18 04:09:48;;;;;;;10.30;9.30;;;20.40;99.90;;;;;;488089;243;29270;-67
2021/06/18 04:11:49;;;;;;;9.43;8.50;;;20.40;99.90;;;;;;488104;243;29369;-67
2021/06/18 04:13:50;;;;;;;12.13;9.47;;;20.50;99.90;;;;;;488164;243;29339;-68
2021/06/18 04:15:51;;;;;;;9.63;8.63;;;20.50;99.90;;;;;;488104;243;28814;-66
2021/06/18 04:17:53;;;;;;;11.77;8.13;;;20.60;99.90;;;;;;488135;243;28853;-66
2021/06/18 04:19:54;;;;;;;9.03;8.13;;;20.60;99.90;;;;;;488102;243;28901;-66
2021/06/18 04:21:55;;;;;;;9.43;8.43;;;20.70;99.90;;;;;;488108;243;28900;-67
2021/06/18 04:23:56;;;;;;;10.07;8.60;;;20.70;99.90;;;;;;488131;243;28848;-67
2021/06/18 04:25:58;;;;;;;10.57;8.40;;;20.60;99.90;;;;;;488128;243;28830;-67
2021/06/18 04:27:59;;;;;;;10.23;9.07;;;20.60;99.90;;;;;;488126;243;28861;-67
2021/06/18 04:30:00;;;;;;;10.33;9.23;;;20.60;99.90;;;;;;488121;243;29395;-68
2021/06/18 04:32:02;;;;;;;10.43;8.67;;;20.60;99.90;;;;;;488094;243;29315;-67
2021/06/18 04:34:04;;;;;;;9.20;8.00;;;20.60;99.90;;;;;;488103;243;29409;-68
2021/06/18 04:36:04;;;;;;;8.50;7.73;;;20.70;99.90;;;;;;488024;243;28824;-68
2021/06/18 04:38:05;;;;;;;9.30;8.43;;;20.60;99.90;;;;;;488084;243;28995;-68
2021/06/18 04:40:07;;;;;;;11.73;8.60;;;20.70;99.90;;;;;;488138;243;28827;-66
2021/06/18 04:42:08;;;;;;;11.00;8.07;;;20.70;99.90;;;;;;488111;243;28844;-67
2021/06/18 04:44:09;;;;;;;8.70;7.77;;;20.70;99.90;;;;;;488106;243;28828;-66
2021/06/18 04:46:10;;;;;;;12.60;8.63;;;20.70;99.90;;;;;;488123;243;28848;-67
2021/06/18 04:48:12;;;;;;;9.63;8.63;;;20.80;99.90;;;;;;488122;243;28840;-67
2021/06/18 04:50:13;;;;;;;15.80;9.00;;;20.80;99.90;;;;;;488111;243;28890;-67
2021/06/18 04:52:14;;;;;;;10.73;8.60;;;20.80;99.90;;;;;;488093;243;29248;-67
2021/06/18 04:54:15;;;;;;;10.30;8.43;;;20.70;99.90;;;;;;488122;243;30034;-67
2021/06/18 04:56:17;;;;;;;10.13;9.13;;;20.70;99.90;;;;;;488086;243;28875;-67
2021/06/18 04:58:18;;;;;;;10.17;8.43;;;20.80;99.90;;;;;;488106;243;28849;-68
2021/06/18 05:00:23;;;;;;;12.23;9.10;;;20.80;99.90;;;;;;488108;243;28805;-67
2021/06/18 05:02:20;;;;;;;10.33;9.30;;;20.80;99.90;;;;;;487739;243;28860;-67
2021/06/18 05:04:22;;;;;;;12.20;9.00;;;20.80;99.90;;;;;;488102;243;28816;-67
2021/06/18 05:06:23;;;;;;;11.93;8.60;;;20.90;99.90;;;;;;488098;243;28822;-67
2021/06/18 05:08:24;;;;;;;9.10;8.20;;;21.00;99.90;;;;;;488100;243;29354;-67
2021/06/18 05:10:25;;;;;;;11.57;8.10;;;21.00;99.90;;;;;;488097;243;29279;-67
2021/06/18 05:12:27;;;;;;;11.20;8.07;;;21.10;99.90;;;;;;488109;243;29352;-67
2021/06/18 05:14:28;;;;;;;8.27;6.90;;;21.20;99.90;;;;;;488120;243;29128;-67
2021/06/18 05:16:29;;;;;;;8.97;8.17;;;21.20;99.90;;;;;;488085;243;28812;-67
2021/06/18 05:18:30;;;;;;;9.50;8.00;;;21.30;99.90;;;;;;488098;243;28874;-68
2021/06/18 05:20:32;;;;;;;8.43;7.63;;;21.30;99.90;;;;;;488104;243;28919;-67
2021/06/18 05:22:33;;;;;;;7.87;7.17;;;21.40;99.90;;;;;;488127;243;28837;-67
2021/06/18 05:24:34;;;;;;;9.43;7.67;;;21.40;99.90;;;;;;488108;243;28846;-67
2021/06/18 05:26:36;;;;;;;8.47;7.67;;;21.50;99.90;;;;;;488133;243;28824;-68
2021/06/18 05:28:37;;;;;;;8.17;7.37;;;21.50;99.90;;;;;;488107;243;28937;-67
2021/06/18 05:30:38;;;;;;;10.83;7.63;;;21.60;99.90;;;;;;488127;243;28902;-66
2021/06/18 05:32:39;;;;;;;8.57;7.10;;;21.70;99.90;;;;;;488035;243;29429;-67
2021/06/18 05:34:40;;;;;;;6.60;5.90;;;21.80;99.90;;;;;;486906;243;29368;-66
2021/06/18 05:36:44;;;;;;;9.43;6.57;;;21.90;99.90;;;;;;482387;246;29258;-67
2021/06/18 05:38:43;;;;;;;8.47;6.20;;;22.00;99.90;;;;;;481980;246;28776;-67
2021/06/18 05:40:44;;;;;;;11.43;6.93;;;22.00;99.90;;;;;;482394;246;28804;-67
2021/06/18 05:42:45;;;;;;;12.07;6.53;;;22.10;99.90;;;;;;482378;246;28766;-67
2021/06/18 05:44:47;;;;;;;8.20;6.20;;;22.10;99.90;;;;;;482382;246;28746;-67
2021/06/18 05:46:48;;;;;;;8.97;6.50;;;22.10;99.90;;;;;;482394;245;28814;-67
2021/06/18 05:48:49;;;;;;;8.33;6.73;;;22.20;99.90;;;;;;482435;246;28825;-67
2021/06/18 05:50:53;;;;;;;8.10;5.63;;;22.20;99.90;;;;;;482385;246;28765;-67
2021/06/18 05:52:55;;;;;;;7.37;6.20;;;22.30;99.90;;;;;;482360;246;28878;-66
2021/06/18 05:54:56;;;;;;;12.60;6.30;;;22.30;99.90;;;;;;482371;246;28810;-67
2021/06/18 05:56:57;;;;;;;7.00;5.73;;;22.40;99.90;;;;;;482400;246;28841;-68
2021/06/18 05:58:58;;;;;;;8.00;5.67;;;22.40;99.90;;;;;;482402;246;28803;-67
2021/06/18 06:01:00;;;;;;;6.03;5.53;;;22.50;99.90;;;;;;482368;246;28747;-68
2021/06/18 06:03:01;;;;;;;7.10;5.70;;;22.50;99.90;;;;;;482383;246;28765;-67
2021/06/18 06:05:02;;;;;;;7.47;6.13;;;22.60;99.90;;;;;;482379;246;28759;-67
2021/06/18 06:07:03;;;;;;;7.93;6.33;;;22.60;99.90;;;;;;482397;246;29149;-69
2021/06/18 06:09:05;;;;;;;5.80;5.30;;;22.70;99.90;;;;;;482346;246;29168;-67
2021/06/18 06:11:06;;;;;;;9.63;6.53;;;22.80;99.90;;;;;;482377;246;29313;-68
2021/06/18 06:13:07;;;;;;;7.13;5.80;;;22.90;99.90;;;;;;482393;246;29258;-67
2021/06/18 06:15:08;;;;;;;6.80;5.20;;;23.00;99.90;;;;;;482364;246;28834;-67
2021/06/18 06:17:10;;;;;;;6.33;5.53;;;23.10;99.90;;;;;;482108;246;28743;-69
2021/06/18 06:19:11;;;;;;;8.07;5.47;;;23.20;99.90;;;;;;482293;246;28763;-67
2021/06/18 06:21:12;;;;;;;9.20;5.20;;;23.20;99.90;;;;;;482321;246;28838;-68
2021/06/18 06:23:13;;;;;;;7.73;5.03;;;23.20;99.90;;;;;;482389;246;28720;-66
2021/06/18 06:25:15;;;;;;;7.93;5.07;;;23.30;99.90;;;;;;482381;246;28785;-67
2021/06/18 06:27:16;;;;;;;5.40;4.60;;;23.40;99.90;;;;;;482390;246;28762;-69
2021/06/18 06:29:17;;;;;;;7.53;5.00;;;23.50;99.90;;;;;;482283;246;28705;-67
2021/06/18 06:31:18;;;;;;;12.30;4.50;;;23.50;99.90;;;;;;482306;246;28773;-68
2021/06/18 06:33:20;;;;;;;8.03;4.97;;;23.60;99.90;;;;;;482285;246;29167;-67
2021/06/18 06:35:22;;;;;;;6.30;4.37;;;23.70;99.90;;;;;;482308;246;29312;-66
2021/06/18 06:37:22;;;;;;;8.00;4.80;;;23.80;99.90;;;;;;482312;246;29320;-69
2021/06/18 06:39:23;;;;;;;9.33;4.93;;;23.80;99.90;;;;;;482326;246;28782;-66
2021/06/18 06:41:25;;;;;;;8.27;5.10;;;23.90;99.90;;;;;;482323;246;28842;-67
2021/06/18 06:43:26;;;;;;;11.30;5.40;;;24.00;99.90;;;;;;482312;246;28721;-66
2021/06/18 06:45:27;;;;;;;11.40;5.27;;;24.10;99.90;;;;;;482289;246;28758;-67
2021/06/18 06:47:29;;;;;;;8.10;4.87;;;24.20;99.90;;;;;;482376;246;28774;-68
2021/06/18 06:49:31;;;;;;;9.03;5.23;;;24.30;99.90;;;;;;482269;246;29143;-67
2021/06/18 06:51:32;;;;;;;7.47;4.73;;;24.40;99.90;;;;;;482309;246;28760;-66
2021/06/18 06:53:33;;;;;;;9.90;5.03;;;24.50;99.90;;;;;;482311;246;29240;-66
2021/06/18 06:55:34;;;;;;;7.47;5.00;;;24.60;99.90;;;;;;482352;246;29418;-67
2021/06/18 06:57:36;;;;;;;5.00;4.23;;;24.70;99.90;;;;;;482353;246;29272;-66
2021/06/18 06:59:37;;;;;;;6.03;4.43;;;24.70;99.90;;;;;;482346;246;28840;-67
2021/06/18 07:01:38;;;;;;;7.63;4.67;;;24.90;99.90;;;;;;482323;246;28712;-67
2021/06/18 07:03:40;;;;;;;7.67;4.60;;;25.00;99.90;;;;;;482320;246;28849;-67
2021/06/18 07:05:41;;;;;;;7.50;4.20;;;25.00;99.90;;;;;;482362;246;28711;-67
2021/06/18 07:07:42;;;;;;;9.80;5.10;;;25.10;99.90;;;;;;482355;246;28750;-67
2021/06/18 07:09:43;;;;;;;7.73;4.50;;;25.20;99.90;;;;;;482331;246;28893;-69
2021/06/18 07:11:44;;;;;;;9.33;4.90;;;25.30;99.90;;;;;;482332;246;28720;-67
2021/06/18 07:13:46;;;;;;;10.40;4.40;;;25.30;99.90;;;;;;482325;246;28866;-67
2021/06/18 07:15:48;;;;;;;4.73;4.10;;;25.40;99.90;;;;;;482302;246;28747;-67
2021/06/18 07:17:48;;;;;;;8.43;4.30;;;25.50;99.90;;;;;;482305;246;29214;-67
2021/06/18 07:19:49;;;;;;;8.83;4.30;;;25.60;99.90;;;;;;482349;246;29235;-69
2021/06/18 07:21:51;;;;;;;5.83;4.13;;;25.70;99.90;;;;;;482374;246;29195;-67
2021/06/18 07:23:52;;;;;;;5.60;4.30;;;25.80;99.90;;;;;;482338;246;28834;-67
2021/06/18 07:25:53;;;;;;;5.87;3.87;;;25.90;99.90;;;;;;482350;246;28773;-67
2021/06/18 07:27:54;;;;;;;10.27;4.67;;;25.90;99.90;;;;;;482015;246;28941;-67
2021/06/18 07:29:56;;;;;;;4.90;4.30;;;26.00;99.90;;;;;;482123;246;28749;-68
2021/06/18 07:31:57;;;;;;;4.30;3.90;;;25.90;99.90;;;;;;482139;246;28760;-66
2021/06/18 07:33:58;;;;;;;6.10;4.70;;;26.00;99.90;;;;;;482058;246;28876;-68
2021/06/18 07:35:59;;;;;;;12.70;5.13;;;26.00;99.90;;;;;;482170;246;28751;-69
2021/06/18 07:38:01;;;;;;;5.47;4.70;;;26.00;99.90;;;;;;482177;246;28846;-66
2021/06/18 07:40:02;;;;;;;4.63;3.97;;;25.90;99.90;;;;;;482149;246;29268;-67
2021/06/18 07:42:03;;;;;;;6.50;4.37;;;25.80;99.90;;;;;;482198;246;29257;-68
2021/06/18 07:44:04;;;;;;;5.10;3.83;;;25.80;99.90;;;;;;482333;246;29282;-67
2021/06/18 07:46:06;;;;;;;7.30;4.47;;;25.80;99.90;;;;;;482294;246;28753;-68
2021/06/18 07:48:09;;;;;;;5.70;4.17;;;25.90;99.90;;;;;;482420;246;28807;-67
2021/06/18 07:50:08;;;;;;;9.27;4.40;;;26.00;99.90;;;;;;482275;246;28749;-67
2021/06/18 07:52:09;;;;;;;9.47;5.17;;;26.10;99.90;;;;;;482308;246;28706;-67
2021/06/18 07:54:11;;;;;;;6.97;4.43;;;26.10;99.90;;;;;;482369;246;28726;-67
2021/06/18 07:56:12;;;;;;;8.10;4.50;;;26.30;99.90;;;;;;482375;246;28774;-68
2021/06/18 07:58:13;;;;;;;7.37;4.23;;;26.30;99.90;;;;;;478238;239;28877;-67
2021/06/18 08:00:14;;;;;;;8.50;4.53;;;26.30;99.90;;;;;;473299;250;28916;-67
2021/06/18 08:02:16;;;;;;;7.87;5.10;;;26.20;99.90;;;;;;473337;250;29336;-68
2021/06/18 08:04:17;;;;;;;7.57;4.67;;;26.20;99.90;;;;;;473297;250;29435;-67
2021/06/18 08:06:18;;;;;;;6.90;4.70;;;26.30;99.90;;;;;;473325;250;29371;-67
2021/06/18 08:08:20;;;;;;;6.23;4.40;;;26.30;99.90;;;;;;476066;234;28932;-67
2021/06/18 08:10:22;;;;;;;7.50;5.13;;;26.30;99.90;;;;;;476104;250;29395;-67
2021/06/18 08:12:25;;;;;;;6.43;4.40;;;26.20;99.90;;;;;;476017;249;29964;-68
2021/06/18 08:14:28;;;;;;;8.07;5.10;;;26.30;99.90;;;;;;476079;250;29002;-67
2021/06/18 08:16:28;;;;;;;7.07;4.73;;;26.40;99.90;;;;;;475958;250;28888;-67
2021/06/18 08:18:29;;;;;;;5.47;4.70;;;26.40;99.90;;;;;;477203;237;29415;-67
2021/06/18 08:20:34;;;;;;;5.60;4.80;;;26.40;99.90;;;;;;476668;249;29465;-67
2021/06/18 08:22:32;;;;;;;8.77;5.20;;;26.40;99.90;;;;;;476296;249;29306;-67
2021/06/18 08:24:34;;;;;;;6.63;4.57;;;26.40;99.90;;;;;;476568;249;28787;-67
2021/06/18 08:26:35;;;;;;;7.17;4.37;;;26.40;99.90;;;;;;476701;249;28841;-68
2021/06/18 08:28:36;;;;;;;6.50;5.10;;;26.40;99.90;;;;;;474793;235;29264;-66
2021/06/18 08:30:37;;;;;;;9.73;4.33;;;26.40;99.90;;;;;;482654;245;29368;-66
2021/06/18 08:32:38;;;;;;;10.20;4.87;;;26.50;99.90;;;;;;482685;246;28857;-68
2021/06/18 08:34:40;;;;;;;6.10;4.77;;;26.50;99.90;;;;;;482685;246;28759;-68
2021/06/18 08:36:41;;;;;;;10.60;4.80;;;26.60;99.90;;;;;;482696;246;28987;-69
2021/06/18 08:38:43;;;;;;;5.17;4.50;;;26.60;99.90;;;;;;477353;242;28806;-68
2021/06/18 08:40:43;;;;;;;6.27;5.00;;;26.70;99.90;;;;;;468849;253;28901;-66
2021/06/18 08:42:48;;;;;;;5.27;4.40;;;26.70;99.90;;;;;;475014;250;28819;-67
2021/06/18 08:44:49;;;;;;;5.27;4.30;;;26.70;99.90;;;;;;475018;250;28946;-69
2021/06/18 08:49:14;;;;;;;7.30;4.70;;;26.70;99.90;;;;;;460074;258;29045;-68
2021/06/18 08:51:15;;;;;;;5.17;4.60;;;26.90;99.90;;;;;;458575;257;28900;-69
2021/06/18 08:53:17;;;;;;;5.57;5.00;;;26.90;99.90;;;;;;458432;259;28972;-66
2021/06/18 08:55:20;;;;;;;7.80;4.90;;;26.90;99.90;;;;;;458440;259;28928;-67
2021/06/18 08:57:25;;;;;;;6.17;5.17;;;26.90;99.90;;;;;;458203;249;28919;-67
2021/06/18 08:59:24;;;;;;;7.30;4.83;;;26.90;99.90;;;;;;477135;248;29316;-69
2021/06/18 09:01:28;;;;;;;8.23;5.00;;;26.80;99.90;;;;;;477454;247;29325;-69
2021/06/18 09:03:26;;;;;;;8.13;4.90;;;26.80;99.90;;;;;;477370;247;28795;-69
2021/06/18 09:05:29;;;;;;;12.43;6.10;;;26.80;99.90;;;;;;477474;247;28811;-69
2021/06/18 09:07:29;;;;;;;10.00;5.43;;;26.80;99.90;;;;;;477313;245;28853;-68
2021/06/18 09:09:31;;;;;;;7.77;5.67;;;26.90;99.90;;;;;;481667;246;28804;-69
2021/06/18 09:11:35;;;;;;;9.10;4.50;;;27.00;99.90;;;;;;481625;246;28663;-68
2021/06/18 09:13:34;;;;;;;8.67;4.90;;;27.20;99.90;;;;;;481013;247;28735;-69
2021/06/18 09:15:41;;;;;;;7.47;4.80;;;27.30;99.90;;;;;;481693;246;28757;-68
2021/06/18 09:17:43;;;;;;;13.23;5.40;;;27.40;99.90;;;;;;476743;236;29052;-68
2021/06/18 09:19:44;;;;;;;7.30;5.17;;;27.40;99.90;;;;;;489883;242;29902;-68
2021/06/18 09:21:45;;;;;;;5.80;4.93;;;27.40;99.90;;;;;;475986;248;28718;-68
2021/06/18 09:23:50;;;;;;;8.63;4.73;;;27.40;99.90;;;;;;484801;244;28839;-67
2021/06/18 09:25:51;;;;;;;6.07;4.90;;;27.40;99.90;;;;;;484627;244;28851;-68
2021/06/18 09:27:55;;;;;;;7.33;4.70;;;27.50;99.90;;;;;;480137;237;28851;-69
2021/06/18 09:29:56;;;;;;;12.50;4.90;;;27.60;99.90;;;;;;468801;254;28994;-69
2021/06/18 09:32:06;;;;;;;4.90;4.40;;;27.80;99.90;;;;;;466786;254;28819;-68
2021/06/18 09:34:12;;;;;;;9.57;5.40;;;28.00;99.90;;;;;;466987;254;29331;-68
2021/06/18 09:36:12;;;;;;;10.53;5.17;;;28.10;99.90;;;;;;466995;254;29552;-68
2021/06/18 09:38:15;;;;;;;6.30;5.13;;;28.10;99.90;;;;;;479667;238;28824;-68
2021/06/18 09:40:20;;;;;;;11.23;5.27;;;28.10;99.90;;;;;;475634;246;28920;-68
2021/06/18 09:42:26;;;;;;;8.30;4.87;;;28.20;99.90;;;;;;487683;243;28938;-69
2021/06/18 09:44:28;;;;;;;5.00;4.47;;;28.30;99.90;;;;;;487080;243;28839;-67
2021/06/18 09:46:28;;;;;;;6.77;4.80;;;28.30;99.90;;;;;;489989;242;28835;-68
2021/06/18 09:48:29;;;;;;;6.70;4.80;;;28.30;99.90;;;;;;483165;242;28881;-70
2021/06/18 09:50:31;;;;;;;9.40;4.90;;;28.20;99.90;;;;;;494707;240;29246;-67
2021/06/18 09:52:33;;;;;;;7.30;5.33;;;28.20;99.90;;;;;;494687;240;29326;-67
2021/06/18 09:54:39;;;;;;;7.03;5.00;;;28.10;99.90;;;;;;494649;240;29237;-69
2021/06/18 09:56:35;;;;;;;7.43;4.70;;;28.00;99.90;;;;;;494178;238;28849;-68
2021/06/18 09:58:36;;;;;;;5.90;4.97;;;28.00;99.90;;;;;;488684;240;28780;-68
2021/06/18 10:00:39;;;;;;;9.63;4.87;;;28.10;99.90;;;;;;488243;243;28840;-68
2021/06/18 10:02:40;;;;;;;7.43;4.67;;;28.20;99.90;;;;;;488393;243;28753;-68
2021/06/18 10:04:48;;;;;;;6.40;4.80;;;28.20;99.90;;;;;;488427;242;29286;-67
2021/06/18 10:06:49;;;;;;;9.27;5.30;;;28.30;99.90;;;;;;488443;243;28797;-69
2021/06/18 10:08:53;;;;;;;5.33;4.83;;;28.30;99.90;;;;;;485971;236;28758;-70
2021/06/18 10:10:55;;;;;;;6.80;5.40;;;28.50;99.90;;;;;;490026;242;29178;-71
2021/06/18 10:12:59;;;;;;;12.27;5.53;;;28.40;99.90;;;;;;483732;245;28838;-74
2021/06/18 10:15:09;;;;;;;11.87;6.90;;;28.40;99.90;;;;;;483707;245;28885;-72
2021/06/18 10:19:07;;;;;;;11.50;5.50;;;28.40;99.90;;;;;;486253;238;28787;-71
2021/06/18 10:21:08;;;;;;;11.60;5.47;;;28.40;99.90;;;;;;483978;238;29275;-72
2021/06/18 10:23:13;;;;;;;8.23;5.50;;;28.40;99.90;;;;;;486059;244;28817;-69
2021/06/18 10:25:15;;;;;;;9.30;6.17;;;28.40;99.90;;;;;;485092;244;28764;-73
2021/06/18 10:27:18;;;;;;;13.93;6.20;;;28.40;99.90;;;;;;483420;242;28863;-72
2021/06/18 10:29:16;;;;;;;8.23;5.20;;;28.40;99.90;;;;;;485311;243;28889;-74